Terminal Aerodrome Forecast
Issued by NWS

Home | Current Version | Previous Version | Text Only | Print | Product List | Glossary On
Versions: 1 2 3 4 5 6 7 8 9 10 11 12 13 14 15 16 17 18
000
FTUS42 KTBW 291121
TAFRSW
TAF
KRSW 291121Z 2912/3012 01006KT P6SM SKC
     FM291400 02010KT P6SM FEW250
     FM292300 03006KT P6SM SKC
     FM300300 06005KT P6SM SKC=

USA.gov is the U.S. government's official web portal to all federal, state and local government web resources and services.